Pagina principale
METAR-TAF:

METAR-TAF

Aeroporti :

Aeroporto Internazionale di Yap

Yap, Micronesia

latitudine: 09-29N, longitudine: 138-05E, altezza: 28 m

Osservazione

Il bollettino è stato emesso 52 minuti fa, alle 04:50 UTC
Vento 3 kt da direzioni variabili
Temperature 31°C
Umidità 66%
Pressione 1010 hPa
Visibilità: 19.3 km
Poco nuvoloso ad un'altezza di 1700 ft
Poco nuvoloso ad un'altezza di 13000 ft
Nuvoloso ad un'altezza di 30000 ft

METAR: PTYA 180450Z VRB03KT 12SM FEW017 FEW130 BKN300 31/24 A2982 RMK SLP098 T03060239

Ora: 15:42 (05:42 UTC)

Previsione

Il bollettino è stato emesso 6 ore e 3 minuti fa, alle 23:39 UTC
Previsione valida dal 18 alle 00 UTC al 18 alle 24 UTC
Vento 11 kt da sud-ovest
Visibilità: 10 km
Nubi sparse ad un'altezza di 1600 ft
Nuvoloso ad un'altezza di 12000 ft
rovesci nelle vicinanze

TAF: PTYA 172339Z 1800/1824 23011KT P6SM VCSH SCT016 BKN120

Osservazioni e previsioni meteorologiche di più di 4000 aeroporti (messaggi METAR e TAF).

Le stazioni disponibili sono rappresentate dai dischi gialli e rossi sulla carta.

Puntare il mouse per vedere il nome della stazione.

Clicca sopra per visualizzare le osservazioni e previsioni meteorologiche.

Per cambiare la mappa : fare clic sui pulsanti verdi con una croce nera per ingrandire, il pulsante verde con un trattino per diminuire, o sulla freccia verde per le mappe adiacenti.


METAR-TAF: